Time;durP1;ratioP1;P1;durP2;ratioP2;P2;SDS_P1;SDS_P2;PMS_P1;PMS_P2;Temp;Humidity;BMP_temperature;BMP_pressure;BME280_temperature;BME280_humidity;BME280_pressure;Samples;Min_cycle;Max_cycle;Signal;HPM_P1;HPM_P2
2023/08/10 00:00:25;;;;;;;3.77;2.13;;;;;;;;;;4978973;28;20214;-84
2023/08/10 00:02:52;;;;;;;4.03;2.37;;;;;;;;;;4964217;28;20219;-84
2023/08/10 00:05:18;;;;;;;4.83;2.50;;;;;;;;;;4962623;28;20680;-87
2023/08/10 00:07:45;;;;;;;5.10;2.60;;;;;;;;;;4979560;28;20186;-84
2023/08/10 00:10:11;;;;;;;3.00;2.27;;;;;;;;;;4999221;28;20234;-91
2023/08/10 00:12:38;;;;;;;4.57;2.47;;;;;;;;;;4967782;28;20246;-87
2023/08/10 00:15:05;;;;;;;3.70;2.33;;;;;;;;;;4964186;28;20201;-84
2023/08/10 00:17:32;;;;;;;6.10;2.47;;;;;;;;;;4979928;28;20199;-85
2023/08/10 00:19:58;;;;;;;5.17;2.30;;;;;;;;;;4979203;28;20219;-85
2023/08/10 00:22:24;;;;;;;3.20;2.50;;;;;;;;;;4979010;28;20187;-84
2023/08/10 00:24:50;;;;;;;3.33;2.50;;;;;;;;;;4995424;28;20187;-84
2023/08/10 00:27:16;;;;;;;3.40;2.20;;;;;;;;;;4980128;28;20678;-84
2023/08/10 00:29:42;;;;;;;2.60;2.13;;;;;;;;;;5012590;22;20227;-77
2023/08/10 00:32:09;;;;;;;2.47;2.10;;;;;;;;;;5007339;28;20222;-77
2023/08/10 00:34:35;;;;;;;5.03;2.43;;;;;;;;;;4978065;28;20191;-77
2023/08/10 00:37:01;;;;;;;2.27;2.07;;;;;;;;;;5018708;28;20186;-77
2023/08/10 00:39:27;;;;;;;3.77;2.20;;;;;;;;;;5018487;28;20211;-77
2023/08/10 00:41:53;;;;;;;3.60;2.40;;;;;;;;;;4991387;28;20194;-77
2023/08/10 00:44:19;;;;;;;3.43;2.30;;;;;;;;;;5026702;28;20214;-77
2023/08/10 00:46:47;;;;;;;3.80;2.33;;;;;;;;;;5005449;28;20180;-77
2023/08/10 00:49:13;;;;;;;2.63;2.33;;;;;;;;;;5008697;28;20618;-77
2023/08/10 00:51:39;;;;;;;3.43;2.40;;;;;;;;;;5014708;28;20224;-77
2023/08/10 00:54:06;;;;;;;2.40;2.20;;;;;;;;;;5020104;28;20677;-78
2023/08/10 00:56:33;;;;;;;2.50;2.30;;;;;;;;;;5015418;28;20188;-77
2023/08/10 00:58:59;;;;;;;3.10;2.10;;;;;;;;;;5026835;28;20225;-77
2023/08/10 01:01:25;;;;;;;2.80;2.30;;;;;;;;;;5007759;28;20642;-77
2023/08/10 01:03:51;;;;;;;2.57;2.20;;;;;;;;;;5009951;28;20210;-77
2023/08/10 01:06:34;;;;;;;4.10;2.20;;;;;;;;;;5008027;28;20187;-77
2023/08/10 01:09:00;;;;;;;4.10;2.40;;;;;;;;;;5012182;28;20182;-77
2023/08/10 01:11:42;;;;;;;2.50;2.30;;;;;;;;;;5011091;28;20725;-77
2023/08/10 01:14:17;;;;;;;2.00;1.90;;;;;;;;;;5008391;28;20218;-77
2023/08/10 01:16:44;;;;;;;2.77;2.40;;;;;;;;;;5011139;28;20190;-77
2023/08/10 01:19:20;;;;;;;4.93;2.80;;;;;;;;;;5016646;28;20856;-77
2023/08/10 01:22:16;;;;;;;2.30;2.00;;;;;;;;;;4998827;28;20241;-77
2023/08/10 01:24:43;;;;;;;3.37;2.30;;;;;;;;;;4994618;28;20207;-77
2023/08/10 01:27:14;;;;;;;3.80;2.50;;;;;;;;;;4998785;28;20191;-77
2023/08/10 01:29:41;;;;;;;2.67;2.40;;;;;;;;;;4989113;28;20774;-77
2023/08/10 01:32:13;;;;;;;3.57;2.40;;;;;;;;;;5014166;28;20195;-77
2023/08/10 01:34:39;;;;;;;3.80;2.20;;;;;;;;;;5014128;28;20695;-77
2023/08/10 01:37:06;;;;;;;3.43;2.53;;;;;;;;;;4985784;28;20198;-77
2023/08/10 01:39:32;;;;;;;2.40;2.20;;;;;;;;;;4998981;28;20282;-77
2023/08/10 01:41:59;;;;;;;3.43;2.47;;;;;;;;;;4979685;28;20192;-77
2023/08/10 01:44:25;;;;;;;5.67;2.80;;;;;;;;;;4997146;28;20772;-77
2023/08/10 01:46:53;;;;;;;4.10;2.77;;;;;;;;;;4999533;28;20179;-77
2023/08/10 01:49:20;;;;;;;3.57;2.80;;;;;;;;;;5002451;28;20231;-78
2023/08/10 01:51:47;;;;;;;3.20;2.60;;;;;;;;;;5003927;28;20219;-78
2023/08/10 01:54:15;;;;;;;4.97;2.63;;;;;;;;;;4982444;28;20230;-77
2023/08/10 01:56:41;;;;;;;4.63;2.70;;;;;;;;;;5001925;28;21814;-77
2023/08/10 01:59:07;;;;;;;5.70;2.83;;;;;;;;;;5011515;28;20240;-77
2023/08/10 02:01:33;;;;;;;4.90;2.70;;;;;;;;;;4985262;28;20605;-77
2023/08/10 02:03:59;;;;;;;3.10;2.70;;;;;;;;;;4998599;28;20219;-77
2023/08/10 02:06:26;;;;;;;3.50;2.80;;;;;;;;;;4985441;28;20568;-77
2023/08/10 02:08:52;;;;;;;2.80;2.50;;;;;;;;;;5001240;28;20185;-77
2023/08/10 02:11:20;;;;;;;5.47;2.50;;;;;;;;;;4986011;28;20204;-77
2023/08/10 02:13:46;;;;;;;2.83;2.50;;;;;;;;;;5004139;28;20288;-77
2023/08/10 02:16:12;;;;;;;4.70;2.93;;;;;;;;;;5004579;28;20621;-77
2023/08/10 02:18:40;;;;;;;3.00;2.70;;;;;;;;;;5004600;28;20678;-77
2023/08/10 02:21:06;;;;;;;4.23;2.63;;;;;;;;;;4999986;28;20285;-78
2023/08/10 02:23:34;;;;;;;2.97;2.60;;;;;;;;;;5004976;28;20222;-77
2023/08/10 02:26:00;;;;;;;2.90;2.60;;;;;;;;;;5008496;28;20321;-77
2023/08/10 02:28:27;;;;;;;2.93;2.63;;;;;;;;;;4994007;28;20172;-77
2023/08/10 02:30:53;;;;;;;4.10;2.93;;;;;;;;;;5007294;28;20234;-77
2023/08/10 02:33:20;;;;;;;3.10;2.77;;;;;;;;;;5007556;28;20198;-77
2023/08/10 02:35:46;;;;;;;3.53;2.60;;;;;;;;;;4982672;28;20302;-77
2023/08/10 02:38:12;;;;;;;4.13;2.20;;;;;;;;;;5005925;28;20183;-77
2023/08/10 02:40:38;;;;;;;4.43;2.60;;;;;;;;;;5004480;28;20208;-77
2023/08/10 02:43:05;;;;;;;3.43;2.70;;;;;;;;;;5005682;28;20349;-77
2023/08/10 02:45:31;;;;;;;4.17;2.40;;;;;;;;;;5006181;28;20355;-77
2023/08/10 02:47:57;;;;;;;4.77;2.50;;;;;;;;;;4985262;28;20229;-77
2023/08/10 02:50:24;;;;;;;2.37;2.17;;;;;;;;;;5004989;28;20219;-77
2023/08/10 02:52:51;;;;;;;4.27;2.57;;;;;;;;;;4983464;28;20226;-78
2023/08/10 02:55:17;;;;;;;4.23;2.30;;;;;;;;;;5003339;28;20677;-77
2023/08/10 02:57:43;;;;;;;3.10;2.63;;;;;;;;;;5002288;28;20206;-77
2023/08/10 03:00:12;;;;;;;4.03;2.80;;;;;;;;;;5000530;28;20227;-77
2023/08/10 03:02:39;;;;;;;2.90;2.60;;;;;;;;;;5008203;28;20241;-77
2023/08/10 03:05:08;;;;;;;2.87;2.60;;;;;;;;;;5001463;28;20231;-77
2023/08/10 03:07:36;;;;;;;3.23;2.67;;;;;;;;;;4983756;28;20663;-78
2023/08/10 03:10:05;;;;;;;3.77;2.60;;;;;;;;;;5003296;28;20230;-77
2023/08/10 03:12:34;;;;;;;2.60;2.40;;;;;;;;;;5017999;28;20202;-77
2023/08/10 03:15:01;;;;;;;5.13;2.43;;;;;;;;;;5000743;28;20184;-78
2023/08/10 03:17:28;;;;;;;2.87;2.67;;;;;;;;;;5000138;28;20229;-77
2023/08/10 03:19:54;;;;;;;4.67;2.67;;;;;;;;;;5002694;28;20207;-77
2023/08/10 03:22:25;;;;;;;3.33;2.33;;;;;;;;;;5018697;28;20201;-77
2023/08/10 03:24:52;;;;;;;3.43;2.70;;;;;;;;;;5005319;28;20651;-78
2023/08/10 03:27:19;;;;;;;3.27;2.80;;;;;;;;;;5007656;28;20629;-77
2023/08/10 03:29:46;;;;;;;2.90;2.60;;;;;;;;;;5008895;28;20712;-77
2023/08/10 03:32:13;;;;;;;3.33;2.80;;;;;;;;;;5000771;28;20183;-77
2023/08/10 03:34:39;;;;;;;3.13;2.63;;;;;;;;;;5009332;28;20693;-78
2023/08/10 03:37:05;;;;;;;3.87;2.63;;;;;;;;;;5009697;28;20218;-77
2023/08/10 03:39:32;;;;;;;4.77;2.70;;;;;;;;;;5005391;28;20798;-77
2023/08/10 03:41:58;;;;;;;5.67;2.90;;;;;;;;;;5008037;28;20563;-77
2023/08/10 03:44:24;;;;;;;3.97;2.93;;;;;;;;;;5006561;28;20285;-78
2023/08/10 03:46:53;;;;;;;4.53;3.00;;;;;;;;;;5008165;28;20187;-77
2023/08/10 03:49:19;;;;;;;4.03;2.73;;;;;;;;;;5002582;28;20642;-78
2023/08/10 03:51:46;;;;;;;8.37;3.00;;;;;;;;;;5030691;28;20187;-77
2023/08/10 03:54:12;;;;;;;3.07;2.77;;;;;;;;;;4980524;28;20184;-77
2023/08/10 03:56:38;;;;;;;5.13;3.10;;;;;;;;;;5003452;28;20190;-77
2023/08/10 03:59:04;;;;;;;4.20;3.33;;;;;;;;;;5005294;28;20179;-77
2023/08/10 04:01:31;;;;;;;4.17;3.23;;;;;;;;;;4984262;28;20180;-77
2023/08/10 04:03:57;;;;;;;4.40;4.00;;;;;;;;;;4999755;28;20230;-77
2023/08/10 04:06:23;;;;;;;3.90;3.20;;;;;;;;;;5001402;28;20198;-77
2023/08/10 04:08:49;;;;;;;4.47;3.70;;;;;;;;;;5030660;28;20275;-77
2023/08/10 04:11:16;;;;;;;3.67;3.23;;;;;;;;;;5034304;28;20199;-78
2023/08/10 04:13:42;;;;;;;3.73;3.30;;;;;;;;;;5005420;28;20204;-78
2023/08/10 04:16:08;;;;;;;4.10;3.30;;;;;;;;;;5003935;28;20287;-77
2023/08/10 04:18:34;;;;;;;3.90;3.50;;;;;;;;;;4999504;28;20194;-77
2023/08/10 04:21:01;;;;;;;4.23;3.17;;;;;;;;;;4998356;28;20211;-77
2023/08/10 04:23:27;;;;;;;3.73;3.40;;;;;;;;;;5007743;28;20206;-77
2023/08/10 04:25:53;;;;;;;4.03;3.40;;;;;;;;;;4998243;28;20274;-77
2023/08/10 04:28:19;;;;;;;4.33;3.30;;;;;;;;;;5007000;28;20241;-77
2023/08/10 04:30:47;;;;;;;3.53;3.23;;;;;;;;;;5009166;28;20215;-77
2023/08/10 04:33:13;;;;;;;5.73;3.30;;;;;;;;;;5024836;28;20724;-77
2023/08/10 04:35:39;;;;;;;3.80;3.40;;;;;;;;;;5007117;28;20237;-77
2023/08/10 04:38:05;;;;;;;4.10;3.70;;;;;;;;;;5000241;28;20182;-77
2023/08/10 04:40:31;;;;;;;7.00;3.90;;;;;;;;;;4998761;28;20822;-78
2023/08/10 04:42:59;;;;;;;4.97;3.50;;;;;;;;;;5005086;28;20203;-77
2023/08/10 04:45:25;;;;;;;4.57;3.30;;;;;;;;;;5006413;28;20193;-77
2023/08/10 04:47:51;;;;;;;3.73;3.10;;;;;;;;;;5001662;28;20184;-77
2023/08/10 04:50:17;;;;;;;5.50;3.07;;;;;;;;;;5002038;28;20273;-78
2023/08/10 04:52:44;;;;;;;3.40;2.80;;;;;;;;;;5002218;28;20298;-77
2023/08/10 04:55:13;;;;;;;4.53;3.30;;;;;;;;;;5003908;28;20198;-77
2023/08/10 04:57:40;;;;;;;4.80;3.17;;;;;;;;;;5001241;28;20650;-77
2023/08/10 05:00:11;;;;;;;3.93;3.13;;;;;;;;;;5009278;28;20720;-77
2023/08/10 05:02:39;;;;;;;3.53;3.23;;;;;;;;;;5007464;28;20198;-78
2023/08/10 05:05:06;;;;;;;4.63;3.33;;;;;;;;;;5001072;28;20183;-77
2023/08/10 05:07:33;;;;;;;3.37;2.93;;;;;;;;;;5006386;28;20543;-77
2023/08/10 05:09:59;;;;;;;3.43;3.13;;;;;;;;;;4999969;28;20407;-77
2023/08/10 05:12:25;;;;;;;3.23;2.93;;;;;;;;;;5005158;28;20655;-77
2023/08/10 05:14:51;;;;;;;3.57;3.10;;;;;;;;;;5008086;28;20195;-77
2023/08/10 05:17:18;;;;;;;4.90;3.00;;;;;;;;;;5008500;28;20183;-78
2023/08/10 05:19:44;;;;;;;3.63;3.23;;;;;;;;;;5009198;28;20245;-78
2023/08/10 05:22:10;;;;;;;6.53;3.23;;;;;;;;;;5007103;28;20654;-77
2023/08/10 05:24:37;;;;;;;3.50;3.20;;;;;;;;;;5000519;28;20250;-77
2023/08/10 05:27:03;;;;;;;5.10;3.40;;;;;;;;;;4988316;28;20184;-77
2023/08/10 05:29:30;;;;;;;4.70;3.40;;;;;;;;;;5006597;28;20233;-81
2023/08/10 05:31:57;;;;;;;5.07;3.40;;;;;;;;;;4991049;28;20359;-80
2023/08/10 05:34:23;;;;;;;4.47;3.20;;;;;;;;;;5002157;28;20215;-80
2023/08/10 05:36:49;;;;;;;3.93;3.40;;;;;;;;;;5010639;28;20586;-82
2023/08/10 05:39:15;;;;;;;4.50;2.80;;;;;;;;;;4994960;28;20198;-78
2023/08/10 05:41:41;;;;;;;3.13;2.83;;;;;;;;;;5010721;28;20249;-78
2023/08/10 05:44:08;;;;;;;3.50;2.93;;;;;;;;;;5007654;28;20255;-78
2023/08/10 05:46:34;;;;;;;5.77;2.90;;;;;;;;;;5004407;28;20202;-78
2023/08/10 05:49:00;;;;;;;3.53;2.90;;;;;;;;;;5010910;28;20194;-83
2023/08/10 05:51:26;;;;;;;4.63;2.70;;;;;;;;;;4990989;28;20198;-78
2023/08/10 05:53:52;;;;;;;4.57;2.70;;;;;;;;;;5007977;28;20214;-79
2023/08/10 05:56:19;;;;;;;7.03;3.07;;;;;;;;;;5014002;28;20188;-77
2023/08/10 05:58:45;;;;;;;3.10;2.80;;;;;;;;;;5014963;28;20183;-77
2023/08/10 06:04:24;;;;;;;3.57;2.77;;;;;;;;;;5025882;28;20254;-80
2023/08/10 06:06:50;;;;;;;5.37;2.87;;;;;;;;;;5039142;28;20183;-83
2023/08/10 06:09:23;;;;;;;4.40;3.03;;;;;;;;;;5026370;28;20223;-85
2023/08/10 06:11:51;;;;;;;4.20;2.63;;;;;;;;;;4998748;28;20681;-88
2023/08/10 06:14:18;;;;;;;3.13;2.50;;;;;;;;;;5016570;28;20191;-87
2023/08/10 06:16:44;;;;;;;2.90;2.67;;;;;;;;;;5009634;28;20205;-86
2023/08/10 06:19:10;;;;;;;5.67;3.00;;;;;;;;;;5022477;28;20194;-87
2023/08/10 06:21:37;;;;;;;2.67;2.37;;;;;;;;;;5029492;28;20214;-88
2023/08/10 06:24:06;;;;;;;4.13;2.70;;;;;;;;;;5004477;28;20212;-87
2023/08/10 06:26:34;;;;;;;3.80;2.60;;;;;;;;;;5029203;28;20198;-86
2023/08/10 06:29:00;;;;;;;4.00;2.90;;;;;;;;;;4986705;28;20187;-87
2023/08/10 06:31:26;;;;;;;5.80;2.70;;;;;;;;;;5039567;23;20316;-80
2023/08/10 06:33:52;;;;;;;5.80;2.87;;;;;;;;;;4999357;28;20185;-80
2023/08/10 06:36:18;;;;;;;4.20;3.07;;;;;;;;;;5030754;28;20198;-80
2023/08/10 06:38:45;;;;;;;4.00;2.97;;;;;;;;;;5025865;28;20266;-80
2023/08/10 06:41:11;;;;;;;7.23;2.90;;;;;;;;;;5018974;28;20210;-79
2023/08/10 06:43:38;;;;;;;5.03;3.03;;;;;;;;;;5000070;28;20219;-80
2023/08/10 06:46:04;;;;;;;4.93;2.97;;;;;;;;;;5018411;28;20191;-80
2023/08/10 06:48:30;;;;;;;3.30;2.80;;;;;;;;;;5017792;28;20224;-79
2023/08/10 06:50:57;;;;;;;5.70;3.10;;;;;;;;;;5017463;28;20207;-79
2023/08/10 06:53:23;;;;;;;3.70;3.10;;;;;;;;;;5016345;28;20190;-80
2023/08/10 06:55:50;;;;;;;3.83;2.90;;;;;;;;;;5015628;28;20210;-80
2023/08/10 06:58:17;;;;;;;4.50;2.90;;;;;;;;;;5002859;28;20204;-79
2023/08/10 07:00:44;;;;;;;3.20;2.80;;;;;;;;;;5019376;28;20700;-79
2023/08/10 07:03:10;;;;;;;4.57;3.13;;;;;;;;;;5019459;28;20279;-80
2023/08/10 07:05:40;;;;;;;4.20;2.97;;;;;;;;;;5016221;28;20630;-79
2023/08/10 07:08:07;;;;;;;5.00;3.47;;;;;;;;;;5016260;28;20643;-79
2023/08/10 07:10:33;;;;;;;6.67;3.63;;;;;;;;;;4997315;28;20202;-79
2023/08/10 07:12:59;;;;;;;4.47;3.40;;;;;;;;;;5012978;28;20332;-80
2023/08/10 07:15:25;;;;;;;3.90;3.30;;;;;;;;;;5015206;28;20195;-80
2023/08/10 07:17:51;;;;;;;7.50;3.43;;;;;;;;;;5012345;28;20187;-79
2023/08/10 07:20:20;;;;;;;5.20;3.47;;;;;;;;;;5012471;28;20218;-81
2023/08/10 07:22:47;;;;;;;3.83;3.53;;;;;;;;;;5011803;28;20233;-80
2023/08/10 07:25:16;;;;;;;5.03;3.27;;;;;;;;;;4995676;28;20198;-80
2023/08/10 07:27:43;;;;;;;3.60;3.30;;;;;;;;;;5011013;28;20214;-80
2023/08/10 07:30:09;;;;;;;4.80;3.10;;;;;;;;;;5013039;28;20643;-80
2023/08/10 07:32:36;;;;;;;3.57;3.23;;;;;;;;;;5011301;28;20183;-80
2023/08/10 07:35:02;;;;;;;4.73;3.83;;;;;;;;;;5011787;28;20666;-80
2023/08/10 07:37:29;;;;;;;5.57;3.20;;;;;;;;;;5011245;28;20227;-80
2023/08/10 07:39:55;;;;;;;4.03;3.47;;;;;;;;;;5011485;28;20214;-80
2023/08/10 07:42:22;;;;;;;6.33;4.00;;;;;;;;;;5011187;28;20175;-80
2023/08/10 07:44:48;;;;;;;3.90;3.40;;;;;;;;;;5012529;28;20322;-80
2023/08/10 07:47:14;;;;;;;3.67;3.27;;;;;;;;;;5012806;28;20183;-80
2023/08/10 07:49:43;;;;;;;3.33;2.90;;;;;;;;;;5014561;28;20222;-80
2023/08/10 07:52:09;;;;;;;5.27;3.20;;;;;;;;;;5019031;28;20794;-80
2023/08/10 07:54:36;;;;;;;5.63;3.30;;;;;;;;;;5015056;28;20190;-80
2023/08/10 07:57:02;;;;;;;3.30;2.93;;;;;;;;;;5015871;28;20198;-80
2023/08/10 07:59:28;;;;;;;5.60;3.10;;;;;;;;;;5013078;28;20186;-80
2023/08/10 08:01:54;;;;;;;3.63;2.73;;;;;;;;;;4995904;28;20561;-81
2023/08/10 08:04:21;;;;;;;2.90;2.60;;;;;;;;;;5011640;28;20213;-80
2023/08/10 08:06:47;;;;;;;3.07;2.80;;;;;;;;;;5012058;28;20210;-80
2023/08/10 08:09:13;;;;;;;4.00;3.33;;;;;;;;;;5012415;28;20190;-80
2023/08/10 08:11:40;;;;;;;3.50;3.10;;;;;;;;;;5010388;28;20286;-80
2023/08/10 08:14:06;;;;;;;4.20;3.00;;;;;;;;;;5011005;28;20183;-80
2023/08/10 08:16:32;;;;;;;3.53;2.80;;;;;;;;;;4994359;28;20234;-80
2023/08/10 08:18:58;;;;;;;3.80;2.90;;;;;;;;;;5012125;28;20191;-80
2023/08/10 08:21:25;;;;;;;4.70;2.77;;;;;;;;;;5014804;28;20203;-80
2023/08/10 08:23:52;;;;;;;5.13;3.03;;;;;;;;;;5020006;28;20203;-80
2023/08/10 08:26:19;;;;;;;4.40;2.87;;;;;;;;;;5018725;28;20677;-80
2023/08/10 08:28:46;;;;;;;4.00;2.83;;;;;;;;;;5008085;28;20274;-80
2023/08/10 08:31:13;;;;;;;3.40;2.90;;;;;;;;;;5010558;28;20225;-80
2023/08/10 08:33:39;;;;;;;3.93;2.60;;;;;;;;;;5007182;28;20758;-80
2023/08/10 08:36:06;;;;;;;2.47;2.27;;;;;;;;;;5002750;28;20203;-81
2023/08/10 08:38:32;;;;;;;2.70;2.50;;;;;;;;;;4993667;28;20199;-80
2023/08/10 08:41:03;;;;;;;2.87;2.63;;;;;;;;;;5009585;28;20242;-80
2023/08/10 08:43:30;;;;;;;3.27;2.93;;;;;;;;;;4993667;28;20211;-80
2023/08/10 08:45:58;;;;;;;4.33;2.50;;;;;;;;;;4993168;28;20239;-81
2023/08/10 08:48:27;;;;;;;3.10;2.80;;;;;;;;;;5009498;28;20193;-80
2023/08/10 08:50:53;;;;;;;3.20;2.90;;;;;;;;;;5010299;28;20194;-80
2023/08/10 08:53:20;;;;;;;3.47;2.80;;;;;;;;;;4993124;28;20210;-80
2023/08/10 08:55:47;;;;;;;2.93;2.70;;;;;;;;;;5011434;28;20241;-80
2023/08/10 08:58:16;;;;;;;3.53;3.10;;;;;;;;;;5013340;28;20194;-81
2023/08/10 09:00:50;;;;;;;3.50;3.20;;;;;;;;;;5008954;28;20636;-81
2023/08/10 09:03:16;;;;;;;3.50;3.03;;;;;;;;;;5011455;28;20214;-81
2023/08/10 09:05:45;;;;;;;4.30;3.33;;;;;;;;;;5010752;28;20207;-80
2023/08/10 09:08:13;;;;;;;3.33;3.03;;;;;;;;;;5009089;28;20180;-81
2023/08/10 09:10:39;;;;;;;5.30;3.00;;;;;;;;;;5009161;28;20206;-80
2023/08/10 09:13:13;;;;;;;4.80;3.30;;;;;;;;;;5009657;28;20187;-80
2023/08/10 09:15:39;;;;;;;4.50;3.30;;;;;;;;;;5007497;28;20234;-81
2023/08/10 09:18:06;;;;;;;3.10;2.80;;;;;;;;;;5001449;28;20187;-81
2023/08/10 09:20:32;;;;;;;3.97;3.60;;;;;;;;;;5010699;28;20594;-81
2023/08/10 09:22:59;;;;;;;4.00;3.60;;;;;;;;;;5010065;28;20210;-80
2023/08/10 09:25:26;;;;;;;4.30;3.90;;;;;;;;;;5012612;28;20663;-80
2023/08/10 09:27:53;;;;;;;4.03;3.67;;;;;;;;;;5013078;28;20630;-81
2023/08/10 09:30:19;;;;;;;4.53;4.07;;;;;;;;;;5008503;28;20215;-80
2023/08/10 09:32:46;;;;;;;4.80;3.60;;;;;;;;;;5020928;28;20518;-80
2023/08/10 09:35:14;;;;;;;5.10;3.87;;;;;;;;;;5015122;28;20206;-80
2023/08/10 09:37:41;;;;;;;4.60;4.10;;;;;;;;;;5015151;28;20551;-80
2023/08/10 09:40:08;;;;;;;4.93;4.43;;;;;;;;;;5013780;28;20213;-80
2023/08/10 09:42:34;;;;;;;4.83;4.43;;;;;;;;;;5014136;28;20195;-80
2023/08/10 09:45:05;;;;;;;4.77;4.37;;;;;;;;;;5014024;28;20183;-80
2023/08/10 09:47:35;;;;;;;4.93;4.40;;;;;;;;;;4997198;28;20187;-80
2023/08/10 09:50:03;;;;;;;3.97;3.60;;;;;;;;;;5014997;28;20264;-80
2023/08/10 09:52:29;;;;;;;3.90;3.60;;;;;;;;;;5012843;28;20188;-80
2023/08/10 09:54:57;;;;;;;4.17;3.77;;;;;;;;;;5014423;28;20191;-80
2023/08/10 09:57:29;;;;;;;4.40;4.00;;;;;;;;;;5012405;28;20202;-80
2023/08/10 09:59:55;;;;;;;4.10;3.70;;;;;;;;;;5015338;28;20203;-80
2023/08/10 10:02:22;;;;;;;4.03;3.63;;;;;;;;;;5016883;28;20234;-80
2023/08/10 10:04:49;;;;;;;4.30;3.50;;;;;;;;;;5017612;28;20286;-81
2023/08/10 10:07:20;;;;;;;3.90;3.60;;;;;;;;;;5011924;28;20182;-80
2023/08/10 10:09:47;;;;;;;3.40;3.10;;;;;;;;;;5016061;28;20199;-80
2023/08/10 10:12:14;;;;;;;3.27;2.93;;;;;;;;;;5015310;28;20233;-80
2023/08/10 10:14:44;;;;;;;3.43;3.10;;;;;;;;;;5015156;28;20274;-80
2023/08/10 10:17:11;;;;;;;4.83;3.23;;;;;;;;;;5007488;28;20187;-80
2023/08/10 10:19:39;;;;;;;2.90;2.60;;;;;;;;;;5016582;28;20210;-81
2023/08/10 10:22:05;;;;;;;3.37;2.37;;;;;;;;;;5018100;28;20228;-81
2023/08/10 10:24:32;;;;;;;5.17;2.70;;;;;;;;;;5015493;28;20230;-80
2023/08/10 10:27:08;;;;;;;3.07;2.53;;;;;;;;;;5014105;28;20183;-80
2023/08/10 10:29:37;;;;;;;3.33;3.03;;;;;;;;;;5013731;28;20183;-81
2023/08/10 10:32:14;;;;;;;2.30;2.10;;;;;;;;;;5018997;28;20190;-79
2023/08/10 10:34:41;;;;;;;3.03;2.70;;;;;;;;;;5017887;28;20198;-81
2023/08/10 10:37:11;;;;;;;2.90;2.70;;;;;;;;;;5004032;28;20717;-80
2023/08/10 10:39:39;;;;;;;4.07;3.30;;;;;;;;;;5013418;28;20183;-83
2023/08/10 10:42:05;;;;;;;2.97;2.77;;;;;;;;;;5012715;28;20183;-79
2023/08/10 10:44:51;;;;;;;2.70;2.50;;;;;;;;;;5009896;28;20211;-78
2023/08/10 10:47:17;;;;;;;4.73;3.07;;;;;;;;;;5025528;28;20190;-82
2023/08/10 10:49:56;;;;;;;4.27;3.40;;;;;;;;;;5012634;28;20199;-82
2023/08/10 10:52:38;;;;;;;2.30;1.97;;;;;;;;;;5011942;28;20556;-81
2023/08/10 10:55:09;;;;;;;2.47;2.10;;;;;;;;;;5013083;28;20180;-80
2023/08/10 10:57:36;;;;;;;3.40;1.90;;;;;;;;;;5012893;28;20185;-77
2023/08/10 11:00:03;;;;;;;2.90;2.10;;;;;;;;;;5010677;28;20200;-77
2023/08/10 11:02:34;;;;;;;4.33;2.50;;;;;;;;;;5010083;28;20184;-77
2023/08/10 11:05:00;;;;;;;2.27;2.03;;;;;;;;;;5010572;28;20275;-77
2023/08/10 11:07:26;;;;;;;3.07;2.40;;;;;;;;;;5011832;28;20262;-77
2023/08/10 11:09:52;;;;;;;4.80;2.50;;;;;;;;;;5009027;28;20992;-77
2023/08/10 11:12:18;;;;;;;2.83;2.00;;;;;;;;;;4978018;28;20675;-77
2023/08/10 11:14:45;;;;;;;1.90;1.80;;;;;;;;;;5012140;28;20206;-77
2023/08/10 11:17:11;;;;;;;3.03;2.10;;;;;;;;;;5011970;28;20194;-77
2023/08/10 11:19:37;;;;;;;2.23;1.90;;;;;;;;;;5011756;28;20183;-77
2023/08/10 11:22:03;;;;;;;2.20;2.00;;;;;;;;;;5011608;28;20197;-77
2023/08/10 11:24:29;;;;;;;1.70;1.60;;;;;;;;;;5010723;28;20562;-77
2023/08/10 11:26:56;;;;;;;2.57;1.97;;;;;;;;;;5010819;28;20196;-77
2023/08/10 11:29:22;;;;;;;1.97;1.83;;;;;;;;;;5011289;28;20189;-77
2023/08/10 11:31:49;;;;;;;2.57;2.03;;;;;;;;;;5011596;28;20187;-77
2023/08/10 11:34:25;;;;;;;2.43;2.03;;;;;;;;;;5011478;28;20185;-77
2023/08/10 11:36:52;;;;;;;2.40;1.90;;;;;;;;;;4993765;28;20186;-77
2023/08/10 11:39:19;;;;;;;3.77;2.00;;;;;;;;;;5008974;28;20261;-77
2023/08/10 11:41:45;;;;;;;2.50;1.80;;;;;;;;;;4992117;28;20223;-77
2023/08/10 11:44:32;;;;;;;1.93;1.77;;;;;;;;;;5011208;28;20214;-77
2023/08/10 11:46:59;;;;;;;3.10;1.83;;;;;;;;;;5011318;28;20592;-78
2023/08/10 11:49:26;;;;;;;1.90;1.70;;;;;;;;;;5007511;28;20548;-77
2023/08/10 11:51:53;;;;;;;2.83;2.00;;;;;;;;;;5010806;28;20946;-77
2023/08/10 11:54:27;;;;;;;2.10;1.90;;;;;;;;;;5011052;28;20237;-77
2023/08/10 11:56:53;;;;;;;2.43;2.07;;;;;;;;;;5013415;28;20235;-78
2023/08/10 11:59:19;;;;;;;2.40;2.20;;;;;;;;;;5013788;28;20273;-78
2023/08/10 12:01:53;;;;;;;1.93;1.63;;;;;;;;;;5013111;28;20245;-77
2023/08/10 12:04:19;;;;;;;2.13;1.93;;;;;;;;;;5011506;28;20238;-78
2023/08/10 12:06:45;;;;;;;2.10;1.90;;;;;;;;;;5006001;28;20180;-78
2023/08/10 12:09:12;;;;;;;3.70;2.00;;;;;;;;;;5012445;28;20184;-78
2023/08/10 12:11:39;;;;;;;2.57;1.93;;;;;;;;;;5011234;28;20222;-78
2023/08/10 12:14:09;;;;;;;3.27;1.93;;;;;;;;;;4991908;28;20248;-78
2023/08/10 12:16:35;;;;;;;2.90;1.90;;;;;;;;;;5009684;28;20235;-78
2023/08/10 12:19:01;;;;;;;2.07;1.70;;;;;;;;;;5009296;28;20201;-78
2023/08/10 12:21:28;;;;;;;2.03;1.80;;;;;;;;;;5011127;28;20210;-77
2023/08/10 12:23:55;;;;;;;2.10;1.90;;;;;;;;;;4990169;28;20219;-77
2023/08/10 12:26:22;;;;;;;2.93;1.93;;;;;;;;;;5007979;28;20199;-77
2023/08/10 12:28:48;;;;;;;2.33;1.80;;;;;;;;;;5009515;28;20179;-77
2023/08/10 12:31:14;;;;;;;1.90;1.70;;;;;;;;;;5064261;22;20240;-79
2023/08/10 12:33:40;;;;;;;1.77;1.67;;;;;;;;;;5049762;28;20191;-79
2023/08/10 12:36:07;;;;;;;2.43;1.87;;;;;;;;;;5031878;28;20195;-79
2023/08/10 12:38:33;;;;;;;2.20;1.93;;;;;;;;;;5049105;28;20186;-79
2023/08/10 12:40:59;;;;;;;2.83;1.93;;;;;;;;;;5048865;28;20682;-79
2023/08/10 12:43:25;;;;;;;1.90;1.80;;;;;;;;;;5049541;28;20625;-78
2023/08/10 12:45:53;;;;;;;4.50;1.80;;;;;;;;;;5031980;28;20299;-78
2023/08/10 12:48:19;;;;;;;2.60;1.83;;;;;;;;;;5049396;28;20255;-79
2023/08/10 12:50:46;;;;;;;2.10;1.87;;;;;;;;;;5049843;28;20205;-80
2023/08/10 12:53:12;;;;;;;2.73;1.90;;;;;;;;;;5014896;28;20717;-79
2023/08/10 12:55:38;;;;;;;2.80;1.90;;;;;;;;;;5049198;28;20176;-80
2023/08/10 12:58:04;;;;;;;1.70;1.60;;;;;;;;;;5031311;28;20199;-80
2023/08/10 13:00:30;;;;;;;1.70;1.60;;;;;;;;;;5049233;28;20215;-80
2023/08/10 13:02:57;;;;;;;1.70;1.60;;;;;;;;;;5047118;28;20217;-81
2023/08/10 13:05:23;;;;;;;2.37;2.17;;;;;;;;;;5051194;28;20183;-80
2023/08/10 13:07:49;;;;;;;1.70;1.60;;;;;;;;;;5016267;28;20188;-83
2023/08/10 13:10:15;;;;;;;1.90;1.80;;;;;;;;;;5033105;28;20200;-81
2023/08/10 13:12:45;;;;;;;1.70;1.60;;;;;;;;;;5032422;28;20390;-83
2023/08/10 13:15:11;;;;;;;2.63;2.03;;;;;;;;;;5009436;28;20177;-81
2023/08/10 13:17:38;;;;;;;5.13;1.80;;;;;;;;;;5050261;28;20557;-81
2023/08/10 13:20:05;;;;;;;2.13;1.90;;;;;;;;;;5031935;28;20201;-81
2023/08/10 13:22:32;;;;;;;2.53;1.87;;;;;;;;;;5032322;28;20653;-78
2023/08/10 13:24:59;;;;;;;2.07;1.70;;;;;;;;;;5050320;28;20267;-82
2023/08/10 13:27:25;;;;;;;2.10;1.83;;;;;;;;;;5031576;28;20182;-83
2023/08/10 13:29:51;;;;;;;2.47;1.80;;;;;;;;;;5031688;28;20207;-82
2023/08/10 13:32:21;;;;;;;2.10;1.60;;;;;;;;;;5032651;28;20176;-80
2023/08/10 13:34:48;;;;;;;2.57;1.70;;;;;;;;;;5031472;28;20225;-79
2023/08/10 13:37:14;;;;;;;2.10;1.80;;;;;;;;;;5029722;28;20183;-79
2023/08/10 13:39:40;;;;;;;1.80;1.70;;;;;;;;;;5021842;28;20274;-81
2023/08/10 13:42:07;;;;;;;2.10;1.60;;;;;;;;;;5048571;28;20188;-79
2023/08/10 13:44:33;;;;;;;1.77;1.67;;;;;;;;;;5048766;28;20209;-79
2023/08/10 13:47:00;;;;;;;2.63;2.00;;;;;;;;;;5031806;28;20228;-81
2023/08/10 13:49:26;;;;;;;1.60;1.50;;;;;;;;;;5031965;28;20276;-81
2023/08/10 13:51:53;;;;;;;2.00;1.77;;;;;;;;;;5015968;28;20238;-80
2023/08/10 13:54:19;;;;;;;1.70;1.60;;;;;;;;;;5031926;28;20176;-81
2023/08/10 13:56:57;;;;;;;1.73;1.63;;;;;;;;;;5013520;28;20193;-81
2023/08/10 13:59:23;;;;;;;1.85;1.67;;;;;;;;;;5032857;28;20652;-81
2023/08/10 14:01:49;;;;;;;3.03;1.60;;;;;;;;;;5049254;28;20180;-81
2023/08/10 14:04:15;;;;;;;1.93;1.83;;;;;;;;;;5048982;28;20209;-81
2023/08/10 14:06:41;;;;;;;1.98;1.70;;;;;;;;;;5031710;28;20208;-81
2023/08/10 14:09:08;;;;;;;1.60;1.50;;;;;;;;;;5014350;28;20188;-81
2023/08/10 14:11:34;;;;;;;2.80;1.92;;;;;;;;;;5032795;28;20592;-81
2023/08/10 14:14:00;;;;;;;2.97;1.70;;;;;;;;;;5052670;28;20184;-81
2023/08/10 14:16:27;;;;;;;2.42;2.03;;;;;;;;;;5054899;28;20698;-81
2023/08/10 14:18:53;;;;;;;2.55;2.10;;;;;;;;;;5035355;28;20249;-81
2023/08/10 14:21:20;;;;;;;1.83;1.73;;;;;;;;;;5035014;28;20252;-81
2023/08/10 14:23:46;;;;;;;2.03;1.83;;;;;;;;;;5030849;28;20308;-81
2023/08/10 14:26:12;;;;;;;1.98;1.88;;;;;;;;;;5035560;28;20188;-81
2023/08/10 14:28:39;;;;;;;3.10;1.85;;;;;;;;;;5035304;28;20188;-81
2023/08/10 14:31:05;;;;;;;2.08;1.90;;;;;;;;;;5052397;28;20675;-81
2023/08/10 14:33:31;;;;;;;2.15;1.80;;;;;;;;;;5052676;28;20643;-81
2023/08/10 14:35:58;;;;;;;2.03;1.87;;;;;;;;;;5052559;28;20185;-81
2023/08/10 14:38:24;;;;;;;3.72;1.98;;;;;;;;;;5053174;28;20187;-81
2023/08/10 14:40:50;;;;;;;1.70;1.60;;;;;;;;;;5036222;28;20706;-81
2023/08/10 14:43:16;;;;;;;2.55;1.80;;;;;;;;;;5059560;28;20690;-81
2023/08/10 14:45:43;;;;;;;3.33;1.88;;;;;;;;;;5040029;28;20632;-81